Redfield, Iowa
Current Conditions -  °F | °C
As of 7:15 AM on Saturday 22 Nov 2014 (Local Time) from KPRO Reporting Station
Haze Haze  
Wind Chill: 32°   Ceiling: 800
Heat Index: 37°   Visibility: 2.5mi
Dew Point: 37°   Wind: 7mph
Humidity: 100%   Direction: 200°SSW
Pressure: 29.89"   Gusts: NA
Location:  41.59°N, 94.2°W
Report Text: KPRO 221315Z AUTO 20006KT 2 1/2SM BR OVC008 03/03 A2989 RMK AO2 T00300030
Loading
Personal Weather Stations






























Interactive Weather Map New forecast layout! Learn more

10-Day Weather Forecast

Advertisements
Track Severe Weather on mobile